Time;durP1;ratioP1;P1;durP2;ratioP2;P2;SDS_P1;SDS_P2;PMS_P1;PMS_P2;Temp;Humidity;BMP_temperature;BMP_pressure;BME280_temperature;BME280_humidity;BME280_pressure;Samples;Min_cycle;Max_cycle;Signal;HPM_P1;HPM_P2
2022/06/24 00:01:14;;;;;;;;;;;;;;;21.86;62.02;100651.97;7403109;19;1604;-58
2022/06/24 00:03:45;;;;;;;;;;;;;;;21.98;61.63;100647.19;7404747;19;1497;-58
2022/06/24 00:06:15;;;;;;;;;;;;;;;21.90;61.84;100650.66;7401705;19;1857;-58
2022/06/24 00:08:53;;;;;;;;;;;;;;;21.96;61.79;100659.94;7404310;19;1757;-58
2022/06/24 00:11:26;;;;;;;;;;;;;;;22.05;61.70;100669.78;7405417;19;1774;-64
2022/06/24 00:14:04;;;;;;;;;;;;;;;22.06;61.60;100660.69;7404597;19;1706;-64
2022/06/24 00:16:33;;;;;;;;;;;;;;;21.99;61.56;100662.34;7404093;19;1531;-58
2022/06/24 00:19:11;;;;;;;;;;;;;;;21.92;61.60;100664.81;7403853;19;1639;-64
2022/06/24 00:21:40;;;;;;;;;;;;;;;21.97;61.58;100656.28;7402997;19;1590;-57
2022/06/24 00:24:08;;;;;;;;;;;;;;;21.94;61.60;100664.66;7404618;19;1536;-57
2022/06/24 00:26:40;;;;;;;;;;;;;;;21.99;61.38;100660.50;7402362;19;1852;-64
2022/06/24 00:29:11;;;;;;;;;;;;;;;22.01;61.58;100665.72;7404824;19;1679;-58
2022/06/24 00:31:39;;;;;;;;;;;;;;;21.97;61.83;100662.50;7404164;19;1268;-63
2022/06/24 00:34:22;;;;;;;;;;;;;;;21.81;61.92;100644.38;7404041;19;1525;-64
2022/06/24 00:36:51;;;;;;;;;;;;;;;21.57;62.49;100658.50;7404708;19;1496;-58
2022/06/24 00:39:19;;;;;;;;;;;;;;;21.63;62.44;100651.66;7403715;19;1313;-64
2022/06/24 00:41:51;;;;;;;;;;;;;;;21.75;62.03;100646.88;7404411;19;1334;-64
2022/06/24 00:44:23;;;;;;;;;;;;;;;21.79;61.87;100664.38;7404073;19;1745;-64
2022/06/24 00:46:52;;;;;;;;;;;;;;;21.68;62.07;100652.00;7404233;19;1525;-64
2022/06/24 00:49:27;;;;;;;;;;;;;;;21.76;62.10;100659.31;7404786;19;1527;-58
2022/06/24 00:51:55;;;;;;;;;;;;;;;21.87;61.57;100652.84;7403534;19;1813;-65
2022/06/24 00:54:25;;;;;;;;;;;;;;;21.92;61.44;100653.19;7403884;19;1548;-58
2022/06/24 00:56:57;;;;;;;;;;;;;;;21.97;61.15;100659.81;7404724;19;1579;-64
2022/06/24 00:59:28;;;;;;;;;;;;;;;21.93;61.26;100662.97;7403712;19;1552;-64
2022/06/24 01:01:57;;;;;;;;;;;;;;;21.95;61.35;100659.13;7402414;19;1622;-58
2022/06/24 01:04:32;;;;;;;;;;;;;;;21.88;61.48;100658.03;7411625;19;1591;-57
2022/06/24 01:07:01;;;;;;;;;;;;;;;21.70;61.78;100666.16;7411514;19;1598;-58
2022/06/24 01:09:30;;;;;;;;;;;;;;;21.69;61.57;100640.25;7410844;19;1765;-58
2022/06/24 01:11:58;;;;;;;;;;;;;;;21.78;61.44;100647.38;7411087;19;1346;-57
2022/06/24 01:14:29;;;;;;;;;;;;;;;21.74;61.54;100642.47;7410014;19;1529;-58
2022/06/24 01:16:58;;;;;;;;;;;;;;;21.60;61.59;100633.94;7411064;19;1631;-58
2022/06/24 01:19:28;;;;;;;;;;;;;;;21.62;61.58;100641.88;7410266;19;1558;-65
2022/06/24 01:22:00;;;;;;;;;;;;;;;21.74;61.27;100647.84;7409755;19;1744;-59
2022/06/24 01:24:28;;;;;;;;;;;;;;;21.79;61.20;100635.63;7409093;19;1367;-64
2022/06/24 01:26:57;;;;;;;;;;;;;;;21.73;61.05;100638.94;7407009;19;1877;-58
2022/06/24 01:29:26;;;;;;;;;;;;;;;21.57;61.79;100646.91;7410384;19;1337;-64
2022/06/24 01:31:55;;;;;;;;;;;;;;;21.58;61.35;100644.03;7410637;19;1538;-58
2022/06/24 01:34:25;;;;;;;;;;;;;;;21.67;61.34;100636.88;7410929;19;1703;-58
2022/06/24 01:36:53;;;;;;;;;;;;;;;21.72;60.97;100631.00;7410008;19;1401;-64
2022/06/24 01:39:24;;;;;;;;;;;;;;;21.72;61.03;100653.38;7409653;19;1664;-58
2022/06/24 01:41:53;;;;;;;;;;;;;;;21.78;61.00;100647.38;7409433;19;1349;-65
2022/06/24 01:44:22;;;;;;;;;;;;;;;21.71;61.06;100648.19;7410167;19;1691;-58
2022/06/24 01:46:51;;;;;;;;;;;;;;;21.72;60.79;100653.38;7407980;19;1834;-64
2022/06/24 01:49:20;;;;;;;;;;;;;;;21.74;60.98;100640.63;7409893;19;1351;-64
2022/06/24 01:51:49;;;;;;;;;;;;;;;21.74;60.74;100640.63;7409013;19;1910;-58
2022/06/24 01:54:18;;;;;;;;;;;;;;;21.67;60.90;100631.50;7410101;19;1583;-64
2022/06/24 01:56:49;;;;;;;;;;;;;;;21.68;60.83;100637.72;7406325;19;1745;-58
2022/06/24 01:59:17;;;;;;;;;;;;;;;21.67;60.54;100638.72;7409378;19;1603;-58
2022/06/24 02:01:46;;;;;;;;;;;;;;;21.62;60.81;100636.50;7396261;19;1529;-64
2022/06/24 02:04:15;;;;;;;;;;;;;;;21.55;60.87;100648.88;7405379;19;1718;-64
2022/06/24 02:06:43;;;;;;;;;;;;;;;21.40;61.17;100654.75;7406332;19;1865;-64
2022/06/24 02:09:16;;;;;;;;;;;;;;;21.56;60.66;100647.88;7408252;19;1553;-58
2022/06/24 02:14:28;;;;;;;;;;;;;;;21.50;60.98;100632.34;7409082;19;1540;-57
2022/06/24 02:16:57;;;;;;;;;;;;;;;21.64;60.38;100654.16;7408909;19;1575;-58
2022/06/24 02:19:25;;;;;;;;;;;;;;;21.61;60.61;100645.56;7408266;19;1359;-64
2022/06/24 02:21:53;;;;;;;;;;;;;;;21.62;60.34;100652.63;7408344;19;1340;-65
2022/06/24 02:24:22;;;;;;;;;;;;;;;21.51;60.58;100661.81;7408633;19;1520;-65
2022/06/24 02:26:50;;;;;;;;;;;;;;;21.48;60.52;100653.19;7406219;19;1868;-65
2022/06/24 02:29:18;;;;;;;;;;;;;;;21.55;59.96;100671.25;7409144;19;1273;-58
2022/06/24 02:31:49;;;;;;;;;;;;;;;21.59;60.06;100658.34;7408714;19;1351;-60
2022/06/24 02:34:18;;;;;;;;;;;;;;;21.56;59.89;100648.72;7408911;19;1383;-58
2022/06/24 02:36:46;;;;;;;;;;;;;;;21.56;60.05;100642.50;7408416;19;1627;-58
2022/06/24 02:39:15;;;;;;;;;;;;;;;21.39;60.20;100653.09;7408091;19;1383;-64
2022/06/24 02:41:43;;;;;;;;;;;;;;;21.38;60.36;100640.63;7408487;19;1631;-64
2022/06/24 02:44:11;;;;;;;;;;;;;;;21.42;59.78;100647.38;7408922;19;1056;-58
2022/06/24 02:46:40;;;;;;;;;;;;;;;21.41;59.92;100624.19;7407662;19;1867;-63
2022/06/24 02:49:11;;;;;;;;;;;;;;;21.35;60.19;100635.56;7407822;19;1577;-64
2022/06/24 02:51:39;;;;;;;;;;;;;;;21.34;59.86;100638.41;7407748;19;1734;-64
2022/06/24 02:54:08;;;;;;;;;;;;;;;21.35;59.85;100634.72;7407209;19;1468;-65
2022/06/24 02:56:36;;;;;;;;;;;;;;;21.41;59.71;100644.88;7407757;19;1360;-58
2022/06/24 02:59:05;;;;;;;;;;;;;;;21.33;59.94;100651.00;7408593;19;1034;-64
2022/06/24 03:01:33;;;;;;;;;;;;;;;21.40;60.03;100649.38;7404416;19;1559;-65
2022/06/24 03:04:01;;;;;;;;;;;;;;;21.42;59.52;100650.06;7404485;19;1352;-64
2022/06/24 03:06:32;;;;;;;;;;;;;;;21.43;59.81;100653.66;7406116;19;1859;-58
2022/06/24 03:09:00;;;;;;;;;;;;;;;21.45;59.70;100657.88;7407424;19;1489;-64
2022/06/24 03:11:29;;;;;;;;;;;;;;;21.41;60.00;100650.25;7407509;19;1715;-57
2022/06/24 03:13:57;;;;;;;;;;;;;;;21.33;59.96;100658.22;7405646;19;1693;-64
2022/06/24 03:16:26;;;;;;;;;;;;;;;21.31;60.29;100638.69;7405285;19;1463;-58
2022/06/24 03:18:54;;;;;;;;;;;;;;;21.36;60.08;100650.69;7404097;19;1463;-60
2022/06/24 03:21:23;;;;;;;;;;;;;;;21.47;60.37;100654.16;7404726;19;1357;-65
2022/06/24 03:23:54;;;;;;;;;;;;;;;21.48;60.43;100662.09;7406891;19;1573;-58
2022/06/24 03:26:22;;;;;;;;;;;;;;;21.43;60.48;100651.81;7403573;19;1837;-57
2022/06/24 03:28:50;;;;;;;;;;;;;;;21.50;60.06;100654.72;7405364;19;1694;-64
2022/06/24 03:31:19;;;;;;;;;;;;;;;21.44;60.47;100649.97;7405875;19;1753;-63
2022/06/24 03:33:50;;;;;;;;;;;;;;;21.47;60.43;100649.66;7403937;19;1656;-65
2022/06/24 03:36:18;;;;;;;;;;;;;;;21.52;60.22;100649.19;7405820;19;1646;-58
2022/06/24 03:38:46;;;;;;;;;;;;;;;21.43;61.02;100643.75;7406040;19;1540;-65
2022/06/24 03:41:17;;;;;;;;;;;;;;;21.54;60.52;100655.25;7405915;19;1261;-63
2022/06/24 03:43:46;;;;;;;;;;;;;;;21.62;60.59;100653.47;7404870;19;1578;-58
2022/06/24 03:46:14;;;;;;;;;;;;;;;21.54;60.65;100652.56;7403522;19;1849;-65
2022/06/24 03:48:42;;;;;;;;;;;;;;;21.53;60.80;100662.50;7404385;19;1528;-58
2022/06/24 03:51:11;;;;;;;;;;;;;;;21.61;60.56;100661.72;7404977;19;1560;-58
2022/06/24 03:53:39;;;;;;;;;;;;;;;21.64;60.77;100664.09;7404230;19;1366;-58
2022/06/24 03:56:07;;;;;;;;;;;;;;;21.63;60.54;100651.66;7402021;19;1287;-58
2022/06/24 03:58:38;;;;;;;;;;;;;;;21.72;60.66;100650.69;7403909;19;1399;-65
2022/06/24 04:01:07;;;;;;;;;;;;;;;21.77;60.15;100656.47;7404850;19;1755;-58
2022/06/24 04:03:35;;;;;;;;;;;;;;;21.79;60.55;100659.84;7404228;19;1646;-64
2022/06/24 04:06:04;;;;;;;;;;;;;;;21.92;60.34;100669.34;7403985;19;1862;-65
2022/06/24 04:08:32;;;;;;;;;;;;;;;22.02;59.95;100656.63;7402910;19;1737;-65
2022/06/24 04:11:01;;;;;;;;;;;;;;;22.02;60.28;100653.94;7403660;19;1263;-58
2022/06/24 04:13:29;;;;;;;;;;;;;;;21.87;61.16;100683.28;7403786;19;1358;-65
2022/06/24 04:16:00;;;;;;;;;;;;;;;21.95;60.81;100669.06;7404699;19;1341;-65
2022/06/24 04:18:29;;;;;;;;;;;;;;;22.01;60.85;100665.72;7402896;19;1507;-64
2022/06/24 04:20:57;;;;;;;;;;;;;;;22.04;60.63;100660.00;7404713;19;1547;-66
2022/06/24 04:23:26;;;;;;;;;;;;;;;22.21;60.46;100661.81;7404499;19;1369;-56
2022/06/24 04:25:54;;;;;;;;;;;;;;;22.24;60.31;100676.84;7402625;19;1857;-58
2022/06/24 04:28:22;;;;;;;;;;;;;;;22.33;60.32;100658.88;7403152;19;1690;-56
2022/06/24 04:30:51;;;;;;;;;;;;;;;22.23;60.70;100681.34;7404074;19;1655;-58
2022/06/24 04:33:22;;;;;;;;;;;;;;;22.16;61.06;100684.81;7403108;19;1544;-58
2022/06/24 04:35:50;;;;;;;;;;;;;;;22.06;61.47;100682.25;7406172;19;1512;-58
2022/06/24 04:38:18;;;;;;;;;;;;;;;21.78;62.15;100676.16;7411361;19;1765;-64
2022/06/24 04:40:47;;;;;;;;;;;;;;;21.69;62.71;100669.03;7412352;19;1842;-57
2022/06/24 04:43:15;;;;;;;;;;;;;;;21.95;61.98;100674.44;7410950;19;1334;-64
2022/06/24 04:45:45;;;;;;;;;;;;;;;22.15;62.13;100686.69;7410450;19;1871;-67
2022/06/24 04:48:14;;;;;;;;;;;;;;;22.20;61.79;100679.00;7411244;19;1429;-60
2022/06/24 04:50:44;;;;;;;;;;;;;;;22.22;61.88;100682.38;7410244;19;1374;-57
2022/06/24 04:53:13;;;;;;;;;;;;;;;22.27;61.73;100684.59;7410863;19;1421;-67
2022/06/24 04:55:41;;;;;;;;;;;;;;;22.46;61.44;100683.53;7413004;19;1541;-68
2022/06/24 04:58:09;;;;;;;;;;;;;;;22.51;61.68;100683.91;7410019;19;1382;-68
2022/06/24 05:00:38;;;;;;;;;;;;;;;22.55;62.26;100681.72;7410716;19;1338;-69
2022/06/24 05:03:06;;;;;;;;;;;;;;;22.64;61.65;100675.34;7416560;19;1436;-66
2022/06/24 05:05:35;;;;;;;;;;;;;;;22.67;61.53;100680.44;7418309;19;1482;-67
2022/06/24 05:08:09;;;;;;;;;;;;;;;22.69;61.72;100694.59;7416963;19;1811;-74
2022/06/24 05:10:38;;;;;;;;;;;;;;;22.74;61.30;100684.19;7427329;19;1386;-66
2022/06/24 05:13:06;;;;;;;;;;;;;;;22.78;61.52;100687.38;7407884;19;1346;-58
2022/06/24 05:15:34;;;;;;;;;;;;;;;22.80;61.50;100698.84;7410286;19;1378;-66
2022/06/24 05:18:03;;;;;;;;;;;;;;;22.75;62.22;100703.88;7407055;19;1488;-65
2022/06/24 05:20:31;;;;;;;;;;;;;;;22.73;61.90;100703.22;7411170;19;1646;-67
2022/06/24 05:22:59;;;;;;;;;;;;;;;22.72;62.19;100691.59;7409965;19;1302;-64
2022/06/24 05:25:31;;;;;;;;;;;;;;;22.73;62.30;100705.91;7409651;19;1376;-56
2022/06/24 05:27:59;;;;;;;;;;;;;;;22.76;62.13;100695.66;7407631;19;1834;-57
2022/06/24 05:30:27;;;;;;;;;;;;;;;22.71;62.49;100697.13;7407178;19;1683;-66
2022/06/24 05:32:56;;;;;;;;;;;;;;;22.61;62.38;100719.66;7404513;19;1651;-57
2022/06/24 05:35:24;;;;;;;;;;;;;;;22.59;62.34;100712.75;7405724;19;1603;-57
2022/06/24 05:37:52;;;;;;;;;;;;;;;22.61;62.47;100697.25;7409173;19;1567;-66
2022/06/24 05:40:21;;;;;;;;;;;;;;;22.55;62.45;100709.50;7408825;19;1431;-66
2022/06/24 05:42:52;;;;;;;;;;;;;;;22.55;62.76;100709.50;7406551;19;1615;-66
2022/06/24 05:45:20;;;;;;;;;;;;;;;22.56;62.74;100708.53;7405664;19;1756;-57
2022/06/24 05:47:49;;;;;;;;;;;;;;;22.56;62.60;100710.34;7402412;19;1857;-57
2022/06/24 05:50:17;;;;;;;;;;;;;;;22.55;62.69;100714.91;7409808;19;1622;-66
2022/06/24 05:55:26;;;;;;;;;;;;;;;22.64;62.79;100719.34;7411113;19;1539;-58
2022/06/24 05:57:57;;;;;;;;;;;;;;;22.71;62.26;100713.31;7410273;19;1662;-57
2022/06/24 06:00:25;;;;;;;;;;;;;;;22.74;62.05;100721.06;7408840;19;1703;-57
2022/06/24 06:02:53;;;;;;;;;;;;;;;22.75;62.03;100720.06;7405167;19;1633;-67
2022/06/24 06:05:22;;;;;;;;;;;;;;;22.81;61.48;100730.19;7408700;19;1524;-57
2022/06/24 06:07:50;;;;;;;;;;;;;;;22.89;61.80;100721.31;7406092;19;1853;-57
2022/06/24 06:10:18;;;;;;;;;;;;;;;22.81;61.45;100714.84;7410042;19;1547;-57
2022/06/24 06:12:46;;;;;;;;;;;;;;;22.82;61.77;100721.97;7407458;19;1513;-67
2022/06/24 06:15:17;;;;;;;;;;;;;;;22.87;61.64;100729.56;7408451;19;1351;-66
2022/06/24 06:17:46;;;;;;;;;;;;;;;22.89;61.64;100727.53;7407426;19;1780;-66
2022/06/24 06:20:14;;;;;;;;;;;;;;;22.91;61.36;100714.72;7404048;19;1655;-56
2022/06/24 06:22:42;;;;;;;;;;;;;;;22.93;61.26;100726.19;7405752;19;1644;-67
2022/06/24 06:25:14;;;;;;;;;;;;;;;22.95;61.26;100720.66;7407022;19;1607;-56
2022/06/24 06:27:42;;;;;;;;;;;;;;;22.95;60.84;100705.31;7404961;19;1849;-68
2022/06/24 06:30:11;;;;;;;;;;;;;;;22.99;60.88;100725.53;7405944;19;1768;-67
2022/06/24 06:32:42;;;;;;;;;;;;;;;22.99;60.66;100717.47;7406496;19;1610;-67
2022/06/24 06:35:11;;;;;;;;;;;;;;;23.00;60.66;100694.06;7407587;19;1665;-57
2022/06/24 06:37:40;;;;;;;;;;;;;;;23.02;60.47;100711.78;7407913;19;1626;-68
2022/06/24 06:40:09;;;;;;;;;;;;;;;23.04;60.61;100706.22;7408576;19;1559;-67
2022/06/24 06:42:37;;;;;;;;;;;;;;;23.05;60.41;100720.56;7407406;19;1576;-67
2022/06/24 06:45:06;;;;;;;;;;;;;;;23.08;60.68;100725.59;7408647;19;1536;-57
2022/06/24 06:47:35;;;;;;;;;;;;;;;23.09;60.49;100719.22;7407144;19;1846;-68
2022/06/24 06:50:07;;;;;;;;;;;;;;;23.08;60.62;100712.13;7406765;19;1586;-56
2022/06/24 06:52:35;;;;;;;;;;;;;;;23.09;60.48;100703.03;7406968;19;1539;-68
2022/06/24 06:55:05;;;;;;;;;;;;;;;23.16;60.49;100717.56;7408148;19;1572;-67
2022/06/24 06:57:34;;;;;;;;;;;;;;;23.17;60.17;100722.78;7405794;19;1605;-57
2022/06/24 07:00:02;;;;;;;;;;;;;;;23.14;60.17;100708.75;7407591;19;1543;-67
2022/06/24 07:02:30;;;;;;;;;;;;;;;23.13;60.19;100707.09;7405268;19;1528;-67
2022/06/24 07:04:58;;;;;;;;;;;;;;;23.15;60.48;100722.09;7406899;19;1348;-67
2022/06/24 07:07:29;;;;;;;;;;;;;;;23.14;60.01;100708.75;7406337;19;1848;-67
2022/06/24 07:09:59;;;;;;;;;;;;;;;23.16;60.00;100690.59;7407331;19;1647;-67
2022/06/24 07:12:27;;;;;;;;;;;;;;;23.17;59.70;100692.25;7407007;19;1431;-56
2022/06/24 07:14:56;;;;;;;;;;;;;;;23.17;59.86;100701.19;7406840;19;1568;-57
2022/06/24 07:17:24;;;;;;;;;;;;;;;23.18;59.63;100702.91;7406533;19;1541;-67
2022/06/24 07:19:52;;;;;;;;;;;;;;;23.22;59.67;100706.13;7407016;19;1496;-57
2022/06/24 07:22:21;;;;;;;;;;;;;;;23.20;59.56;100702.75;7407310;19;1544;-56
2022/06/24 07:24:51;;;;;;;;;;;;;;;23.22;59.36;100706.94;7406991;19;1630;-67
2022/06/24 07:27:20;;;;;;;;;;;;;;;23.21;59.42;100697.16;7406159;19;1863;-57
2022/06/24 07:29:48;;;;;;;;;;;;;;;23.25;59.46;100694.97;7405943;19;1674;-56
2022/06/24 07:32:16;;;;;;;;;;;;;;;23.21;59.29;100690.91;7406175;19;1543;-68
2022/06/24 07:34:45;;;;;;;;;;;;;;;23.27;59.13;100695.66;7407352;19;1545;-56
2022/06/24 07:37:13;;;;;;;;;;;;;;;23.21;59.52;100699.00;7406232;19;1587;-56
2022/06/24 07:39:42;;;;;;;;;;;;;;;23.24;59.41;100701.41;7406996;19;1639;-56
2022/06/24 07:42:13;;;;;;;;;;;;;;;23.23;59.22;100697.00;7404108;19;1638;-60
2022/06/24 07:44:43;;;;;;;;;;;;;;;23.23;59.49;100705.09;7406307;19;1552;-56
2022/06/24 07:47:11;;;;;;;;;;;;;;;23.23;59.18;100697.00;7405490;19;1858;-68
2022/06/24 07:49:40;;;;;;;;;;;;;;;23.22;59.53;100695.31;7405308;19;1540;-57
2022/06/24 07:52:10;;;;;;;;;;;;;;;23.24;59.20;100701.41;7406457;19;1561;-56
2022/06/24 07:54:38;;;;;;;;;;;;;;;23.21;59.13;100697.16;7405922;19;1607;-56
2022/06/24 07:57:04;;;;;;;;;;;;;;;23.21;59.24;100680.97;7406531;19;1533;-57
2022/06/24 07:59:35;;;;;;;;;;;;;;;23.19;59.32;100692.94;7404770;19;1642;-67
2022/06/24 08:02:05;;;;;;;;;;;;;;;23.21;59.08;100682.81;7404534;19;1619;-56
2022/06/24 08:04:33;;;;;;;;;;;;;;;23.20;59.05;100673.06;7406269;19;984;-57
2022/06/24 08:07:04;;;;;;;;;;;;;;;23.21;59.23;100674.72;7404715;19;1864;-67
2022/06/24 08:09:32;;;;;;;;;;;;;;;23.21;58.84;100672.88;7404903;19;1600;-67
2022/06/24 08:12:01;;;;;;;;;;;;;;;23.23;58.89;100675.41;7404364;19;1360;-56
2022/06/24 08:14:30;;;;;;;;;;;;;;;23.32;58.92;100693.31;7404594;19;1540;-68
2022/06/24 08:17:01;;;;;;;;;;;;;;;23.28;58.54;100678.47;7406146;19;1638;-57
2022/06/24 08:19:29;;;;;;;;;;;;;;;23.29;58.48;100682.84;7405713;19;1469;-67
2022/06/24 08:21:57;;;;;;;;;;;;;;;23.26;58.79;100693.97;7405498;19;1765;-56
2022/06/24 08:24:25;;;;;;;;;;;;;;;23.26;58.53;100683.19;7405174;19;1698;-66
2022/06/24 08:26:54;;;;;;;;;;;;;;;23.27;58.73;100675.94;7405389;19;1579;-57
2022/06/24 08:29:22;;;;;;;;;;;;;;;23.34;58.68;100680.50;7404314;19;1611;-57
2022/06/24 08:31:50;;;;;;;;;;;;;;;23.29;58.83;100690.94;7404412;19;1544;-66
2022/06/24 08:34:21;;;;;;;;;;;;;;;22.29;60.27;100687.16;7405745;19;1560;-67
2022/06/24 08:36:50;;;;;;;;;;;;;;;21.11;60.47;100683.72;7404435;19;1699;-67
2022/06/24 08:39:18;;;;;;;;;;;;;;;20.60;60.28;100689.50;7405505;19;1540;-56
2022/06/24 08:41:48;;;;;;;;;;;;;;;20.41;59.65;100681.47;7404267;19;1690;-56
2022/06/24 08:44:16;;;;;;;;;;;;;;;20.30;59.03;100687.06;7404466;19;1537;-56
2022/06/24 08:46:45;;;;;;;;;;;;;;;20.19;58.96;100696.97;7405208;19;1633;-67
2022/06/24 08:49:13;;;;;;;;;;;;;;;20.17;58.27;100681.97;7402800;19;1858;-57
2022/06/24 08:51:44;;;;;;;;;;;;;;;20.04;58.07;100682.31;7404054;19;1757;-67
2022/06/24 08:54:13;;;;;;;;;;;;;;;20.07;57.23;100684.69;7404241;19;1604;-56
2022/06/24 08:56:42;;;;;;;;;;;;;;;19.97;56.68;100670.44;7404612;19;1586;-66
2022/06/24 08:59:11;;;;;;;;;;;;;;;19.95;56.28;100673.25;7404482;19;1552;-59
2022/06/24 09:01:40;;;;;;;;;;;;;;;19.88;56.08;100674.00;7403647;19;1634;-66
2022/06/24 09:04:09;;;;;;;;;;;;;;;19.79;55.68;100673.00;7404907;19;1572;-57
2022/06/24 09:06:41;;;;;;;;;;;;;;;19.72;55.42;100675.44;7403679;19;1710;-67
2022/06/24 09:09:13;;;;;;;;;;;;;;;19.70;55.50;100666.66;7402474;19;1855;-56
2022/06/24 09:11:43;;;;;;;;;;;;;;;19.64;55.38;100669.91;7404824;19;1551;-67
2022/06/24 09:14:11;;;;;;;;;;;;;;;19.70;55.18;100666.66;7404165;19;1555;-56
2022/06/24 09:16:40;;;;;;;;;;;;;;;19.70;54.70;100653.22;7403467;19;1560;-67
2022/06/24 09:19:10;;;;;;;;;;;;;;;20.68;53.92;100685.25;7403192;19;1745;-69
2022/06/24 09:21:39;;;;;;;;;;;;;;;21.69;52.69;100675.25;7404762;19;1420;-69
2022/06/24 09:24:15;;;;;;;;;;;;;;;22.13;52.14;100667.16;7411478;19;1548;-72
2022/06/24 09:26:44;;;;;;;;;;;;;;;22.36;52.21;100672.88;7412862;19;1354;-57
2022/06/24 09:29:13;;;;;;;;;;;;;;;22.48;52.06;100665.34;7408605;19;1862;-61
2022/06/24 09:31:41;;;;;;;;;;;;;;;22.49;52.30;100664.34;7412377;19;1662;-64
2022/06/24 09:34:11;;;;;;;;;;;;;;;22.58;53.01;100676.88;7409555;19;1772;-60
2022/06/24 09:36:40;;;;;;;;;;;;;;;22.62;52.83;100658.50;7409388;19;1702;-67
2022/06/24 09:39:09;;;;;;;;;;;;;;;22.63;53.24;100665.59;7410053;19;1638;-66
2022/06/24 09:41:50;;;;;;;;;;;;;;;22.73;53.48;100674.38;7411157;19;1363;-60
2022/06/24 09:44:19;;;;;;;;;;;;;;;22.68;54.12;100665.09;7409546;19;1880;-67
2022/06/24 09:46:48;;;;;;;;;;;;;;;22.74;54.23;100665.31;7409637;19;1635;-60
2022/06/24 09:49:18;;;;;;;;;;;;;;;22.71;53.98;100654.84;7407798;19;1903;-59
2022/06/24 09:51:47;;;;;;;;;;;;;;;22.81;54.24;100655.53;7409124;19;1785;-66
2022/06/24 09:54:17;;;;;;;;;;;;;;;22.84;54.45;100678.66;7407826;19;1341;-64
2022/06/24 09:56:47;;;;;;;;;;;;;;;22.82;54.44;100668.03;7410019;19;1387;-62
2022/06/24 10:02:02;;;;;;;;;;;;;;;22.86;54.74;100673.09;7403761;19;1485;-63
2022/06/24 10:04:30;;;;;;;;;;;;;;;22.90;54.84;100672.63;7410644;19;1296;-63
2022/06/24 10:06:59;;;;;;;;;;;;;;;22.87;54.81;100648.66;7409727;19;1769;-64
2022/06/24 10:09:29;;;;;;;;;;;;;;;22.89;54.96;100661.97;7406743;19;1864;-64
2022/06/24 10:11:59;;;;;;;;;;;;;;;22.83;55.15;100658.09;7409128;19;1475;-64
2022/06/24 10:14:31;;;;;;;;;;;;;;;22.75;55.61;100649.97;7409196;19;1782;-63
2022/06/24 10:17:00;;;;;;;;;;;;;;;22.78;55.51;100658.59;7409141;19;1341;-58
2022/06/24 10:19:29;;;;;;;;;;;;;;;22.78;55.87;100645.09;7408570;19;1789;-64
2022/06/24 10:21:58;;;;;;;;;;;;;;;22.81;55.95;100643.94;7408510;19;1495;-63
2022/06/24 10:24:27;;;;;;;;;;;;;;;22.80;55.80;100655.69;7408225;19;1778;-63
2022/06/24 10:26:56;;;;;;;;;;;;;;;22.82;55.92;100646.47;7409481;19;1654;-64
2022/06/24 10:29:31;;;;;;;;;;;;;;;22.80;55.89;100632.31;7406568;19;1904;-59
2022/06/24 10:32:06;;;;;;;;;;;;;;;22.82;55.77;100645.63;7407457;19;1380;-63
2022/06/24 10:34:36;;;;;;;;;;;;;;;22.80;56.14;100645.78;7407746;19;1553;-58
2022/06/24 10:37:08;;;;;;;;;;;;;;;22.80;56.27;100644.91;7408904;19;1520;-58
2022/06/24 10:39:46;;;;;;;;;;;;;;;22.88;56.34;100639.56;7408924;19;1690;-64
2022/06/24 10:42:15;;;;;;;;;;;;;;;22.87;56.12;100640.56;7408155;19;1536;-63
2022/06/24 10:44:54;;;;;;;;;;;;;;;22.89;56.04;100630.47;7407684;19;1328;-59
2022/06/24 10:47:30;;;;;;;;;;;;;;;22.89;56.35;100641.25;7406908;19;1587;-58
2022/06/24 10:50:06;;;;;;;;;;;;;;;22.85;56.81;100639.88;7404754;19;1841;-63
2022/06/24 10:52:35;;;;;;;;;;;;;;;22.86;56.89;100630.81;7407328;19;1568;-58
2022/06/24 10:55:18;;;;;;;;;;;;;;;22.87;57.04;100621.69;7407673;19;1539;-58
2022/06/24 10:57:46;;;;;;;;;;;;;;;22.88;57.35;100639.56;7406735;19;1490;-63
2022/06/24 11:00:16;;;;;;;;;;;;;;;22.90;57.56;100637.56;7407243;19;1470;-63
2022/06/24 11:02:47;;;;;;;;;;;;;;;22.85;57.86;100618.31;7405313;19;1417;-63
2022/06/24 11:05:18;;;;;;;;;;;;;;;22.88;58.31;100627.94;7408035;19;1595;-58
2022/06/24 11:07:47;;;;;;;;;;;;;;;22.88;58.67;100644.97;7405978;19;1643;-58
2022/06/24 11:10:19;;;;;;;;;;;;;;;22.86;58.72;100617.31;7407912;19;1382;-58
2022/06/24 11:12:51;;;;;;;;;;;;;;;22.92;58.98;100651.72;7405619;19;1536;-59
2022/06/24 11:15:20;;;;;;;;;;;;;;;22.95;58.80;100627.09;7406069;19;1532;-65
2022/06/24 11:17:51;;;;;;;;;;;;;;;22.91;58.46;100616.81;7406703;19;1631;-57
2022/06/24 11:20:20;;;;;;;;;;;;;;;22.94;59.08;100622.75;7406402;19;1330;-59
2022/06/24 11:22:49;;;;;;;;;;;;;;;22.95;58.29;100624.41;7405900;19;1520;-64
2022/06/24 11:25:19;;;;;;;;;;;;;;;22.96;58.91;100631.50;7407258;19;1308;-63
2022/06/24 11:27:47;;;;;;;;;;;;;;;22.96;58.59;100625.25;7406811;19;1371;-55
2022/06/24 11:30:15;;;;;;;;;;;;;;;22.92;58.65;100626.59;7403602;19;1856;-59
2022/06/24 11:32:56;;;;;;;;;;;;;;;22.93;59.02;100626.44;7406688;19;1568;-56
2022/06/24 11:35:25;;;;;;;;;;;;;;;22.98;58.43;100617.88;7405916;19;1233;-55
2022/06/24 11:37:53;;;;;;;;;;;;;;;23.02;58.27;100624.66;7406439;19;1347;-61
2022/06/24 11:40:22;;;;;;;;;;;;;;;22.99;58.05;100616.84;7406980;19;1568;-60
2022/06/24 11:42:50;;;;;;;;;;;;;;;22.99;58.28;100606.06;7406308;19;1512;-56
2022/06/24 11:45:32;;;;;;;;;;;;;;;22.96;58.28;100601.84;7404847;19;1449;-54
2022/06/24 11:48:03;;;;;;;;;;;;;;;22.97;58.24;100592.72;7404889;19;1678;-55
2022/06/24 11:50:31;;;;;;;;;;;;;;;22.98;58.23;100601.69;7406000;19;1532;-59
2022/06/24 11:53:00;;;;;;;;;;;;;;;22.96;58.42;100599.16;7406633;19;1807;-63
2022/06/24 11:55:31;;;;;;;;;;;;;;;23.01;58.55;100609.41;7406179;19;1702;-64
2022/06/24 11:58:00;;;;;;;;;;;;;;;22.97;58.62;100608.91;7405186;19;1669;-61
2022/06/24 12:00:29;;;;;;;;;;;;;;;22.96;58.93;100599.16;7404830;19;1738;-59
2022/06/24 12:02:58;;;;;;;;;;;;;;;22.98;58.64;100601.69;7402882;19;1610;-62
2022/06/24 12:05:31;;;;;;;;;;;;;;;22.99;58.28;100601.50;7404955;19;1646;-59
2022/06/24 12:07:59;;;;;;;;;;;;;;;22.97;58.20;100603.50;7404931;19;1251;-59
2022/06/24 12:10:28;;;;;;;;;;;;;;;23.15;59.05;100621.44;7404838;19;1863;-65
2022/06/24 12:13:00;;;;;;;;;;;;;;;23.03;58.45;100608.28;7404455;19;1348;-58
2022/06/24 12:15:29;;;;;;;;;;;;;;;23.05;58.22;100602.72;7404886;19;1663;-56
2022/06/24 12:17:58;;;;;;;;;;;;;;;23.06;58.31;100604.41;7404725;19;1706;-58
2022/06/24 12:20:30;;;;;;;;;;;;;;;23.00;58.89;100597.81;7405061;19;1634;-58
2022/06/24 12:23:13;;;;;;;;;;;;;;;22.98;58.77;100597.13;7405094;19;1738;-57
2022/06/24 12:25:42;;;;;;;;;;;;;;;22.94;59.01;100595.78;7405640;19;1375;-58
2022/06/24 12:28:19;;;;;;;;;;;;;;;22.95;59.26;100597.44;7405359;19;1560;-59
2022/06/24 12:30:57;;;;;;;;;;;;;;;22.96;58.91;100588.34;7404267;19;1787;-58
2022/06/24 12:33:27;;;;;;;;;;;;;;;23.08;58.88;100596.13;7404275;19;1330;-56
2022/06/24 12:36:09;;;;;;;;;;;;;;;23.13;59.06;100583.00;7405371;19;1560;-57
2022/06/24 12:38:37;;;;;;;;;;;;;;;23.16;58.53;100596.19;7405299;19;1340;-58
2022/06/24 12:41:13;;;;;;;;;;;;;;;23.13;58.94;100597.34;7403130;19;1552;-59
2022/06/24 12:43:57;;;;;;;;;;;;;;;23.20;58.23;100603.75;7403616;19;1625;-58
2022/06/24 12:46:27;;;;;;;;;;;;;;;23.17;58.83;100595.16;7404443;19;1642;-58
2022/06/24 12:51:53;;;;;;;;;;;;;;;23.28;59.43;100592.13;7397831;19;1719;-58
2022/06/24 12:54:21;;;;;;;;;;;;;;;23.16;58.77;100588.09;7402817;19;1706;-58
2022/06/24 12:56:51;;;;;;;;;;;;;;;23.23;57.79;100594.47;7404679;19;1650;-59
2022/06/24 12:59:19;;;;;;;;;;;;;;;23.31;57.18;100569.34;7410565;19;1625;-59
2022/06/24 13:01:48;;;;;;;;;;;;;;;23.32;57.57;100581.84;7410079;19;1540;-58
2022/06/24 13:04:17;;;;;;;;;;;;;;;23.26;57.61;100583.38;7412204;19;1379;-58
2022/06/24 13:06:45;;;;;;;;;;;;;;;23.23;57.77;100583.69;7411119;19;1858;-61
2022/06/24 13:09:16;;;;;;;;;;;;;;;23.30;57.96;100579.31;7410351;19;1849;-62
2022/06/24 13:11:44;;;;;;;;;;;;;;;23.31;57.34;100582.84;7411820;19;1573;-60